PAL104 RPMD-RPLL
Flight info
| Callsign | PAL104 |
|---|---|
| Flight time | N/A |
| Altitude | 40000 |
| Route | ANKIN3R ANKIN B473 LAIYA LAIYA3R |
| Aircraft | A359/H-SDE2E3GHIJ3J4J5LM1ORWXY/LB1D1 |
Departure
| Time | N/A |
|---|---|
| Airport | Francisco Bangoy International Airport (RPMD) |
Arrival
| Time | 2026-05-04 15:23 |
|---|---|
| Airport | Ninoy Aquino International Airport (RPLL) |
| Time | Latitude | Longitude | Altitude | Speed | Heading |
|---|---|---|---|---|---|
| 2026-05-04 14:39 | 11.25211 | 122.95866 | 39898 ft | 470 kts | 329° |
| 2026-05-04 14:39 | 11.30882 | 122.92524 | 39898 ft | 470 kts | 329° |
| 2026-05-04 14:40 | 11.39334 | 122.87553 | 39898 ft | 470 kts | 329° |
| 2026-05-04 14:40 | 11.44962 | 122.84239 | 39898 ft | 470 kts | 329° |
| 2026-05-04 14:41 | 11.50616 | 122.80902 | 39898 ft | 470 kts | 329° |
| 2026-05-04 14:42 | 11.61873 | 122.74094 | 39899 ft | 470 kts | 326° |
| 2026-05-04 14:42 | 11.67335 | 122.70429 | 39898 ft | 470 kts | 326° |
| 2026-05-04 14:43 | 11.72749 | 122.66775 | 39730 ft | 471 kts | 326° |
| 2026-05-04 14:43 | 11.75460 | 122.64947 | 39481 ft | 468 kts | 326° |
| 2026-05-04 14:43 | 11.78165 | 122.63124 | 39230 ft | 465 kts | 326° |
| 2026-05-04 14:44 | 11.80847 | 122.61315 | 38981 ft | 462 kts | 326° |
| 2026-05-04 14:44 | 11.83516 | 122.59516 | 38731 ft | 460 kts | 326° |
| 2026-05-04 14:44 | 11.86190 | 122.57713 | 38480 ft | 459 kts | 326° |
| 2026-05-04 14:44 | 11.88835 | 122.55929 | 38232 ft | 459 kts | 326° |
| 2026-05-04 14:45 | 11.91489 | 122.54139 | 37982 ft | 459 kts | 326° |
| 2026-05-04 14:45 | 11.94153 | 122.52341 | 37732 ft | 459 kts | 326° |
| 2026-05-04 14:45 | 11.96812 | 122.50546 | 37482 ft | 459 kts | 326° |
| 2026-05-04 14:45 | 11.99491 | 122.48737 | 37229 ft | 458 kts | 326° |
| 2026-05-04 14:46 | 12.02123 | 122.46960 | 36980 ft | 455 kts | 326° |
| 2026-05-04 14:46 | 12.04752 | 122.45184 | 36717 ft | 453 kts | 326° |
| 2026-05-04 14:46 | 12.07391 | 122.43403 | 36454 ft | 450 kts | 326° |
| 2026-05-04 14:46 | 12.09993 | 122.41644 | 36229 ft | 448 kts | 326° |
| 2026-05-04 14:47 | 12.12674 | 122.39838 | 36015 ft | 446 kts | 326° |
| 2026-05-04 14:47 | 12.15351 | 122.38038 | 35603 ft | 445 kts | 326° |
| 2026-05-04 14:47 | 12.17949 | 122.36288 | 35189 ft | 442 kts | 326° |
| 2026-05-04 14:47 | 12.20514 | 122.34555 | 34794 ft | 438 kts | 326° |
| 2026-05-04 14:48 | 12.23092 | 122.32800 | 34397 ft | 435 kts | 326° |
| 2026-05-04 14:48 | 12.25686 | 122.31029 | 33996 ft | 431 kts | 326° |
| 2026-05-04 14:48 | 12.28200 | 122.29318 | 33611 ft | 428 kts | 326° |
| 2026-05-04 14:48 | 12.30676 | 122.27637 | 33229 ft | 424 kts | 326° |
| 2026-05-04 14:49 | 12.33130 | 122.25973 | 32845 ft | 421 kts | 326° |
| 2026-05-04 14:49 | 12.35528 | 122.24348 | 32472 ft | 418 kts | 326° |
| 2026-05-04 14:49 | 12.37947 | 122.22703 | 32105 ft | 415 kts | 325° |
| 2026-05-04 14:49 | 12.40336 | 122.21052 | 31748 ft | 412 kts | 325° |
| 2026-05-04 14:50 | 12.42678 | 122.19424 | 31393 ft | 409 kts | 325° |
| 2026-05-04 14:50 | 12.45010 | 122.17804 | 31034 ft | 406 kts | 325° |
| 2026-05-04 14:50 | 12.47383 | 122.16155 | 30666 ft | 403 kts | 325° |
| 2026-05-04 14:50 | 12.49692 | 122.14549 | 30303 ft | 400 kts | 325° |
| 2026-05-04 14:51 | 12.51971 | 122.12965 | 29950 ft | 398 kts | 325° |
| 2026-05-04 14:51 | 12.54253 | 122.11378 | 29606 ft | 394 kts | 325° |
| 2026-05-04 14:51 | 12.56507 | 122.09812 | 29332 ft | 390 kts | 325° |
| 2026-05-04 14:51 | 12.58777 | 122.08233 | 29091 ft | 397 kts | 324° |
| 2026-05-04 14:52 | 12.61060 | 122.06644 | 28858 ft | 399 kts | 324° |
| 2026-05-04 14:52 | 12.63345 | 122.05055 | 28631 ft | 398 kts | 325° |
| 2026-05-04 14:52 | 12.65619 | 122.03474 | 28408 ft | 397 kts | 325° |
| 2026-05-04 14:52 | 12.67874 | 122.01904 | 28188 ft | 395 kts | 324° |
| 2026-05-04 14:53 | 12.70153 | 122.00319 | 27967 ft | 394 kts | 324° |
| 2026-05-04 14:53 | 12.72383 | 121.98766 | 27751 ft | 393 kts | 324° |
| 2026-05-04 14:53 | 12.74665 | 121.97177 | 27531 ft | 391 kts | 324° |
| 2026-05-04 14:53 | 12.76876 | 121.95637 | 27318 ft | 390 kts | 324° |
| 2026-05-04 14:54 | 12.79142 | 121.94059 | 27101 ft | 389 kts | 324° |
| 2026-05-04 14:54 | 12.81347 | 121.92522 | 26889 ft | 388 kts | 324° |
| 2026-05-04 14:54 | 12.83575 | 121.90970 | 26674 ft | 386 kts | 324° |
| 2026-05-04 14:54 | 12.85800 | 121.89419 | 26461 ft | 385 kts | 324° |
| 2026-05-04 14:55 | 12.87988 | 121.87894 | 26250 ft | 384 kts | 324° |
| 2026-05-04 14:55 | 12.90206 | 121.86346 | 26037 ft | 382 kts | 324° |
| 2026-05-04 14:55 | 12.92374 | 121.84834 | 25829 ft | 381 kts | 324° |
| 2026-05-04 14:55 | 12.94558 | 121.83311 | 25618 ft | 380 kts | 324° |
| 2026-05-04 14:56 | 12.96748 | 121.81782 | 25408 ft | 379 kts | 324° |
| 2026-05-04 14:56 | 12.98930 | 121.80260 | 25198 ft | 378 kts | 324° |
| 2026-05-04 14:56 | 13.01076 | 121.78762 | 24992 ft | 377 kts | 324° |
| 2026-05-04 14:56 | 13.03260 | 121.77237 | 24780 ft | 376 kts | 324° |
| 2026-05-04 14:57 | 13.05406 | 121.75738 | 24499 ft | 375 kts | 324° |
| 2026-05-04 14:57 | 13.07563 | 121.74232 | 24170 ft | 373 kts | 324° |
| 2026-05-04 14:57 | 13.09675 | 121.72756 | 23833 ft | 371 kts | 324° |
| 2026-05-04 14:57 | 13.11819 | 121.71263 | 23484 ft | 369 kts | 324° |
| 2026-05-04 14:58 | 13.13932 | 121.69796 | 23142 ft | 366 kts | 324° |
| 2026-05-04 14:58 | 13.16007 | 121.68353 | 22818 ft | 364 kts | 324° |
| 2026-05-04 14:58 | 13.18101 | 121.66893 | 22496 ft | 361 kts | 324° |
| 2026-05-04 14:58 | 13.19472 | 121.65936 | 22287 ft | 359 kts | 324° |
| 2026-05-04 14:59 | 13.22205 | 121.64025 | 21872 ft | 355 kts | 323° |
| 2026-05-04 14:59 | 13.24215 | 121.62619 | 21567 ft | 352 kts | 323° |
| 2026-05-04 14:59 | 13.28243 | 121.59799 | 20952 ft | 347 kts | 323° |
| 2026-05-04 15:00 | 13.30215 | 121.58418 | 20645 ft | 345 kts | 323° |
| 2026-05-04 15:00 | 13.32178 | 121.57043 | 20341 ft | 342 kts | 323° |
| 2026-05-04 15:00 | 13.34129 | 121.55675 | 20029 ft | 340 kts | 323° |
| 2026-05-04 15:01 | 13.38014 | 121.52951 | 19420 ft | 335 kts | 323° |
| 2026-05-04 15:01 | 13.39912 | 121.51620 | 19119 ft | 333 kts | 323° |
| 2026-05-04 15:01 | 13.41811 | 121.50288 | 18816 ft | 331 kts | 323° |
| 2026-05-04 15:01 | 13.43722 | 121.48947 | 18512 ft | 329 kts | 323° |
| 2026-05-04 15:02 | 13.45580 | 121.47643 | 18215 ft | 327 kts | 323° |
| 2026-05-04 15:02 | 13.47466 | 121.46317 | 17910 ft | 325 kts | 323° |
| 2026-05-04 15:02 | 13.49318 | 121.45016 | 17612 ft | 323 kts | 323° |
| 2026-05-04 15:02 | 13.51164 | 121.43720 | 17314 ft | 322 kts | 323° |
| 2026-05-04 15:03 | 13.53015 | 121.42419 | 17013 ft | 320 kts | 323° |
| 2026-05-04 15:03 | 13.54837 | 121.41139 | 16714 ft | 318 kts | 323° |
| 2026-05-04 15:03 | 13.56655 | 121.39862 | 16419 ft | 316 kts | 323° |
| 2026-05-04 15:03 | 13.58437 | 121.38586 | 16134 ft | 314 kts | 322° |
| 2026-05-04 15:04 | 13.60208 | 121.37273 | 15843 ft | 312 kts | 322° |
| 2026-05-04 15:04 | 13.61963 | 121.35964 | 15512 ft | 311 kts | 322° |
| 2026-05-04 15:04 | 13.63700 | 121.34666 | 15199 ft | 309 kts | 322° |
| 2026-05-04 15:04 | 13.65430 | 121.33363 | 14903 ft | 307 kts | 321° |
| 2026-05-04 15:05 | 13.67118 | 121.32092 | 14619 ft | 304 kts | 322° |
| 2026-05-04 15:05 | 13.68838 | 121.30801 | 14333 ft | 302 kts | 322° |
| 2026-05-04 15:05 | 13.70519 | 121.29542 | 14055 ft | 299 kts | 322° |
| 2026-05-04 15:05 | 13.72179 | 121.28302 | 13782 ft | 296 kts | 322° |
| 2026-05-04 15:06 | 13.73844 | 121.27059 | 13505 ft | 294 kts | 322° |
| 2026-05-04 15:06 | 13.75473 | 121.25843 | 13234 ft | 291 kts | 322° |
| 2026-05-04 15:06 | 13.77118 | 121.24616 | 12959 ft | 292 kts | 322° |
| 2026-05-04 15:07 | 13.80434 | 121.22140 | 12387 ft | 294 kts | 322° |
| 2026-05-04 15:07 | 13.82073 | 121.20918 | 12138 ft | 287 kts | 322° |
| 2026-05-04 15:07 | 13.83667 | 121.19728 | 11908 ft | 286 kts | 322° |
| 2026-05-04 15:07 | 13.85280 | 121.18524 | 11661 ft | 285 kts | 323° |
| 2026-05-04 15:08 | 13.86890 | 121.17324 | 11406 ft | 284 kts | 323° |
| 2026-05-04 15:08 | 13.88480 | 121.16144 | 11141 ft | 283 kts | 323° |
| 2026-05-04 15:08 | 13.90062 | 121.14960 | 10870 ft | 282 kts | 323° |
| 2026-05-04 15:08 | 13.91644 | 121.13775 | 10594 ft | 281 kts | 323° |
| 2026-05-04 15:09 | 13.93208 | 121.12605 | 10318 ft | 280 kts | 323° |
| 2026-05-04 15:09 | 13.94787 | 121.11424 | 10101 ft | 274 kts | 323° |
| 2026-05-04 15:09 | 13.96296 | 121.10297 | 9928 ft | 267 kts | 323° |
| 2026-05-04 15:10 | 13.99274 | 121.08070 | 9389 ft | 261 kts | 323° |
| 2026-05-04 15:10 | 14.00723 | 121.06986 | 9134 ft | 259 kts | 323° |
| 2026-05-04 15:10 | 14.03616 | 121.04823 | 8628 ft | 254 kts | 323° |
| 2026-05-04 15:11 | 14.05040 | 121.03757 | 8377 ft | 253 kts | 324° |
| 2026-05-04 15:11 | 14.06457 | 121.02697 | 8129 ft | 251 kts | 324° |
| 2026-05-04 15:11 | 14.07872 | 121.01638 | 7881 ft | 250 kts | 324° |
| 2026-05-04 15:11 | 14.09263 | 121.00597 | 7637 ft | 249 kts | 324° |
| 2026-05-04 15:12 | 14.10671 | 120.99545 | 7393 ft | 248 kts | 324° |
| 2026-05-04 15:12 | 14.12063 | 120.98512 | 7213 ft | 245 kts | 324° |
| 2026-05-04 15:12 | 14.13425 | 120.97500 | 7050 ft | 243 kts | 324° |
| 2026-05-04 15:12 | 14.14808 | 120.96468 | 6956 ft | 243 kts | 324° |
| 2026-05-04 15:13 | 14.16202 | 120.95427 | 6866 ft | 250 kts | 324° |
| 2026-05-04 15:13 | 14.17633 | 120.94428 | 6719 ft | 246 kts | 329° |
| 2026-05-04 15:13 | 14.19094 | 120.93544 | 6502 ft | 244 kts | 330° |
| 2026-05-04 15:13 | 14.20078 | 120.92961 | 6351 ft | 243 kts | 330° |
| 2026-05-04 15:14 | 14.21533 | 120.92104 | 6125 ft | 241 kts | 330° |
| 2026-05-04 15:14 | 14.22984 | 120.91247 | 5898 ft | 240 kts | 330° |
| 2026-05-04 15:14 | 14.24431 | 120.90391 | 5697 ft | 236 kts | 330° |
| 2026-05-04 15:14 | 14.25835 | 120.89561 | 5575 ft | 228 kts | 330° |
| 2026-05-04 15:15 | 14.27154 | 120.88780 | 5541 ft | 216 kts | 330° |
| 2026-05-04 15:15 | 14.28439 | 120.88023 | 5396 ft | 212 kts | 330° |
| 2026-05-04 15:15 | 14.29707 | 120.87282 | 5181 ft | 208 kts | 331° |
| 2026-05-04 15:16 | 14.32161 | 120.85849 | 4714 ft | 197 kts | 331° |
| 2026-05-04 15:16 | 14.33339 | 120.85159 | 4502 ft | 194 kts | 331° |
| 2026-05-04 15:16 | 14.35685 | 120.83788 | 4092 ft | 196 kts | 331° |
| 2026-05-04 15:17 | 14.36874 | 120.83093 | 3880 ft | 196 kts | 331° |
| 2026-05-04 15:17 | 14.39428 | 120.82557 | 3400 ft | 196 kts | 19° |
| 2026-05-04 15:17 | 14.40494 | 120.83375 | 3279 ft | 185 kts | 50° |
| 2026-05-04 15:18 | 14.41145 | 120.84444 | 3159 ft | 169 kts | 58° |
| 2026-05-04 15:18 | 14.41692 | 120.85455 | 3003 ft | 150 kts | 58° |
| 2026-05-04 15:18 | 14.42170 | 120.86350 | 2902 ft | 139 kts | 58° |
| 2026-05-04 15:19 | 14.43114 | 120.88076 | 2753 ft | 138 kts | 57° |
| 2026-05-04 15:19 | 14.43595 | 120.88947 | 2674 ft | 138 kts | 57° |
| 2026-05-04 15:19 | 14.44542 | 120.90653 | 2469 ft | 137 kts | 57° |
| 2026-05-04 15:20 | 14.45019 | 120.91513 | 2347 ft | 137 kts | 57° |
| 2026-05-04 15:20 | 14.45496 | 120.92371 | 2187 ft | 138 kts | 57° |
| 2026-05-04 15:20 | 14.45964 | 120.93220 | 1852 ft | 138 kts | 58° |
| 2026-05-04 15:20 | 14.46435 | 120.94086 | 1484 ft | 139 kts | 58° |
| 2026-05-04 15:21 | 14.46910 | 120.94949 | 1185 ft | 134 kts | 58° |
| 2026-05-04 15:21 | 14.47373 | 120.95778 | 953 ft | 134 kts | 57° |
| 2026-05-04 15:21 | 14.48327 | 120.97419 | 670 ft | 134 kts | 57° |
| 2026-05-04 15:22 | 14.48793 | 120.98250 | 513 ft | 134 kts | 58° |
| 2026-05-04 15:22 | 14.49265 | 120.99081 | 335 ft | 134 kts | 61° |
| 2026-05-04 15:22 | 14.50185 | 121.00719 | 92 ft | 120 kts | 62° |
| 2026-05-04 15:23 | 14.50502 | 121.01322 | 89 ft | 69 kts | 62° |
| 2026-05-04 15:23 | 14.50657 | 121.01595 | 89 ft | 26 kts | 52° |
| 2026-05-04 15:23 | 14.50788 | 121.01735 | 89 ft | 20 kts | 38° |
| 2026-05-04 15:23 | 14.50831 | 121.01769 | 89 ft | 0 kts | 37° |
| 2026-05-04 15:24 | 14.50847 | 121.01781 | 89 ft | 1 kts | 32° |
| 2026-05-04 15:24 | 14.50868 | 121.01784 | 89 ft | 8 kts | 353° |
| 2026-05-04 15:25 | 14.50893 | 121.01730 | 89 ft | 8 kts | 250° |
| 2026-05-04 15:25 | 14.50869 | 121.01684 | 89 ft | 0 kts | 249° |
| 2026-05-04 15:25 | 14.50873 | 121.01659 | 89 ft | 5 kts | 291° |
| 2026-05-04 15:26 | 14.50881 | 121.01559 | 89 ft | 3 kts | 247° |
| 2026-05-04 15:26 | 14.50881 | 121.01527 | 89 ft | 4 kts | 297° |
| 2026-05-04 15:26 | 14.50929 | 121.01473 | 89 ft | 0 kts | 317° |
| 2026-05-04 15:27 | 14.50936 | 121.01467 | 89 ft | 0 kts | 317° |